Marseille, France
Current Conditions -  °F | °C
As of 5:30 PM on Tuesday 21 Oct 2014 (Local Time) from LFML Reporting Station
Few Clouds Few Clouds  
Wind Chill: 77°   Ceiling: Unl
Heat Index: 79°   Visibility: 6mi
Dew Point: 57°   Wind: 23mph
Humidity: 50%   Direction: 290°WNW
Pressure: 29.94"   Gusts: NA
Location:  43.29°N, 5.41°E
Report Text: LFML 211530Z 29020KT 9999 FEW040 25/14 Q1014 NOSIG
Loading
Personal Weather Stations






























Interactive Weather Map
Tropical Storm Tracking
New forecast layout! Learn more

10-Day Weather Forecast

Advertisements
Track Severe Weather on mobile